Time;durP1;ratioP1;P1;durP2;ratioP2;P2;SDS_P1;SDS_P2;PMS_P1;PMS_P2;Temp;Humidity;BMP_temperature;BMP_pressure;BME280_temperature;BME280_humidity;BME280_pressure;Samples;Min_cycle;Max_cycle;Signal;HPM_P1;HPM_P2
2023/08/12 00:01:22;;;;;;;3.97;0.82;;;;;;;19.82;100.00;101299.69;5072364;28;20108;-70
2023/08/12 00:03:48;;;;;;;3.13;1.10;;;;;;;19.89;100.00;101293.44;5086359;28;20027;-70
2023/08/12 00:06:13;;;;;;;3.72;0.77;;;;;;;19.95;100.00;101291.88;5081238;28;20036;-70
2023/08/12 00:08:39;;;;;;;3.35;0.70;;;;;;;19.98;100.00;101294.16;5071620;28;20503;-70
2023/08/12 00:11:04;;;;;;;3.67;0.80;;;;;;;19.98;100.00;101290.69;5074919;28;23039;-70
2023/08/12 00:13:30;;;;;;;7.18;0.90;;;;;;;19.97;100.00;101289.06;5072015;28;20040;-70
2023/08/12 00:15:56;;;;;;;1.48;0.60;;;;;;;19.95;100.00;101288.41;5074254;28;20047;-70
2023/08/12 00:18:22;;;;;;;1.65;0.80;;;;;;;19.85;100.00;101291.34;5076863;28;20126;-70
2023/08/12 00:20:48;;;;;;;1.48;0.70;;;;;;;19.77;100.00;101286.19;5083052;28;20028;-70
2023/08/12 00:23:13;;;;;;;5.40;0.80;;;;;;;19.70;100.00;101291.38;5071418;28;20118;-70
2023/08/12 00:25:39;;;;;;;5.20;0.73;;;;;;;19.73;100.00;101282.28;5075245;28;20036;-70
2023/08/12 00:28:04;;;;;;;2.58;0.70;;;;;;;19.77;100.00;101278.25;5076831;28;20043;-71
2023/08/12 00:30:30;;;;;;;1.52;0.80;;;;;;;19.74;100.00;101273.34;5077876;28;20025;-70
2023/08/12 00:32:55;;;;;;;1.20;0.68;;;;;;;19.78;100.00;101272.78;5070871;28;20036;-70
2023/08/12 00:35:21;;;;;;;2.13;0.80;;;;;;;19.85;100.00;101278.13;5096256;28;20026;-71
2023/08/12 00:37:46;;;;;;;1.90;0.60;;;;;;;19.92;99.34;101268.44;5073628;28;20041;-71
2023/08/12 00:40:13;;;;;;;2.05;0.63;;;;;;;19.94;99.17;101263.78;5071362;28;20456;-70
2023/08/12 00:42:38;;;;;;;3.55;0.85;;;;;;;19.88;100.00;101273.28;5079699;28;20027;-70
2023/08/12 00:45:10;;;;;;;1.58;0.68;;;;;;;19.77;100.00;101268.50;5072659;28;20035;-70
2023/08/12 00:47:36;;;;;;;1.23;0.90;;;;;;;19.72;100.00;101270.88;5073883;28;20036;-71
2023/08/12 00:50:02;;;;;;;1.27;0.82;;;;;;;19.65;100.00;101274.44;5072468;28;20079;-71
2023/08/12 00:52:27;;;;;;;3.03;0.90;;;;;;;19.60;100.00;101274.97;5075621;28;20025;-70
2023/08/12 00:54:53;;;;;;;2.67;1.17;;;;;;;19.58;100.00;101273.53;5070298;28;20043;-70
2023/08/12 00:57:19;;;;;;;3.28;0.75;;;;;;;19.51;100.00;101268.16;5070754;28;20389;-70
2023/08/12 00:59:44;;;;;;;4.28;0.90;;;;;;;19.50;100.00;101269.94;5070795;28;20036;-70
2023/08/12 01:02:11;;;;;;;6.28;1.08;;;;;;;19.48;100.00;101274.59;5071292;28;20126;-70
2023/08/12 01:04:37;;;;;;;1.60;0.93;;;;;;;19.44;100.00;101273.31;5084342;28;20032;-70
2023/08/12 01:07:03;;;;;;;2.88;0.77;;;;;;;19.40;100.00;101274.69;5070024;28;20369;-70
2023/08/12 01:09:29;;;;;;;4.40;1.05;;;;;;;19.38;100.00;101276.69;5075643;28;20028;-70
2023/08/12 01:12:06;;;;;;;4.18;1.05;;;;;;;19.39;100.00;101275.69;5072336;28;20483;-70
2023/08/12 01:14:50;;;;;;;2.75;0.70;;;;;;;19.48;100.00;101273.78;5086012;28;20035;-70
2023/08/12 01:17:15;;;;;;;3.58;0.70;;;;;;;19.55;100.00;101275.53;5084663;28;20043;-70
2023/08/12 01:19:43;;;;;;;1.73;0.85;;;;;;;19.58;100.00;101273.53;5088962;28;20036;-70
2023/08/12 01:22:10;;;;;;;1.25;0.80;;;;;;;19.63;100.00;101273.78;5087172;28;20035;-70
2023/08/12 01:24:41;;;;;;;2.22;0.63;;;;;;;19.61;100.00;101276.63;5087185;28;20472;-70
2023/08/12 01:27:09;;;;;;;2.58;0.65;;;;;;;19.61;100.00;101270.53;5083723;28;20024;-70
2023/08/12 01:29:37;;;;;;;1.73;0.80;;;;;;;19.61;100.00;101265.22;5085861;28;20043;-70
2023/08/12 01:32:30;;;;;;;1.40;0.80;;;;;;;19.54;100.00;101262.50;5082633;28;20031;-70
2023/08/12 01:35:17;;;;;;;0.98;0.60;;;;;;;19.53;100.00;101263.50;5080097;28;20060;-70
2023/08/12 01:37:43;;;;;;;6.53;1.17;;;;;;;19.52;100.00;101262.69;5084011;28;20392;-70
2023/08/12 01:40:10;;;;;;;1.65;1.23;;;;;;;19.58;99.83;101257.66;5081719;28;20096;-70
2023/08/12 01:42:39;;;;;;;1.27;0.80;;;;;;;19.64;99.24;101263.03;5086923;28;20031;-70
2023/08/12 01:45:05;;;;;;;4.75;0.80;;;;;;;19.61;98.97;101258.13;5087316;28;20023;-70
2023/08/12 01:47:32;;;;;;;5.38;0.98;;;;;;;19.67;98.92;101256.56;5083443;28;20047;-70
2023/08/12 01:49:57;;;;;;;3.88;0.70;;;;;;;19.62;98.95;101249.19;5086061;28;20108;-70
2023/08/12 01:52:23;;;;;;;1.77;0.60;;;;;;;19.63;99.04;101244.72;5083733;28;20107;-70
2023/08/12 01:54:48;;;;;;;1.65;0.70;;;;;;;19.57;99.18;101241.00;5084501;28;20067;-70
2023/08/12 01:57:14;;;;;;;2.53;0.70;;;;;;;19.58;99.18;101252.38;5090060;28;20384;-70
2023/08/12 01:59:39;;;;;;;3.88;1.42;;;;;;;19.62;98.20;101245.72;5088194;28;20036;-71
2023/08/12 02:02:05;;;;;;;1.73;0.60;;;;;;;19.66;97.15;101245.19;5083851;28;20515;-72
2023/08/12 02:04:31;;;;;;;1.17;0.60;;;;;;;19.78;95.63;101242.88;5089233;28;20016;-72
2023/08/12 02:06:56;;;;;;;4.88;0.80;;;;;;;19.81;95.70;101242.50;5089305;28;20495;-72
2023/08/12 02:09:23;;;;;;;1.83;0.80;;;;;;;19.72;96.15;101240.97;5090828;28;20463;-72
2023/08/12 02:11:49;;;;;;;1.20;0.63;;;;;;;19.67;96.75;101238.06;5078795;28;20028;-72
2023/08/12 02:14:15;;;;;;;1.13;0.65;;;;;;;19.62;97.28;101230.69;5088804;28;20387;-72
2023/08/12 02:16:41;;;;;;;1.17;0.65;;;;;;;19.57;97.70;101227.78;5093923;28;20028;-72
2023/08/12 02:19:06;;;;;;;3.33;0.90;;;;;;;19.45;99.03;101232.66;5089078;28;20158;-72
2023/08/12 02:21:32;;;;;;;2.67;0.90;;;;;;;19.41;99.68;101238.50;5090439;28;20066;-72
2023/08/12 02:23:57;;;;;;;1.35;0.57;;;;;;;19.34;100.00;101235.81;5090904;28;20498;-71
2023/08/12 02:26:23;;;;;;;4.07;0.63;;;;;;;19.27;100.00;101240.19;5094013;28;20036;-72
2023/08/12 02:28:48;;;;;;;3.65;1.13;;;;;;;19.09;100.00;101239.69;5092170;28;20055;-71
2023/08/12 02:31:15;;;;;;;1.15;0.80;;;;;;;19.13;100.00;101238.34;5089095;28;20444;-72
2023/08/12 02:33:40;;;;;;;3.72;1.02;;;;;;;19.15;100.00;101236.34;5086180;28;20064;-72
2023/08/12 02:36:05;;;;;;;4.28;0.68;;;;;;;19.14;100.00;101234.69;5091019;28;20059;-72
2023/08/12 02:38:31;;;;;;;1.65;0.68;;;;;;;19.11;100.00;101237.69;5082327;28;20032;-72
2023/08/12 02:40:56;;;;;;;1.33;0.95;;;;;;;19.09;100.00;101242.34;5090655;28;20437;-72
2023/08/12 02:43:22;;;;;;;3.08;0.90;;;;;;;19.13;100.00;101244.44;5083877;28;20036;-72
2023/08/12 02:45:47;;;;;;;3.67;0.80;;;;;;;19.11;100.00;101235.88;5082538;28;20032;-72
2023/08/12 02:48:13;;;;;;;1.88;0.73;;;;;;;19.02;100.00;101238.78;5080957;28;20027;-72
2023/08/12 02:50:38;;;;;;;1.45;0.60;;;;;;;18.95;100.00;101235.22;5087141;28;20391;-72
2023/08/12 02:53:04;;;;;;;1.15;0.77;;;;;;;18.89;100.00;101228.88;5077375;28;20078;-72
2023/08/12 02:55:31;;;;;;;4.15;0.75;;;;;;;18.94;100.00;101231.75;5073126;28;20028;-72
2023/08/12 02:57:57;;;;;;;3.88;0.70;;;;;;;18.94;100.00;101233.59;5079092;28;20050;-72
2023/08/12 03:00:23;;;;;;;3.30;0.70;;;;;;;18.96;100.00;101226.31;5081088;28;20028;-72
2023/08/12 03:02:48;;;;;;;1.40;0.70;;;;;;;18.92;100.00;101227.66;5088046;28;20047;-72
2023/08/12 03:05:14;;;;;;;1.85;0.90;;;;;;;18.86;100.00;101227.41;5073196;28;20025;-72
2023/08/12 03:07:39;;;;;;;1.20;1.00;;;;;;;18.83;100.00;101237.50;5077698;28;20082;-72
2023/08/12 03:10:05;;;;;;;2.30;0.80;;;;;;;18.93;100.00;101231.94;5078811;28;20037;-72
2023/08/12 03:12:31;;;;;;;4.68;1.08;;;;;;;18.99;100.00;101231.22;5073396;28;20453;-72
2023/08/12 03:14:56;;;;;;;1.38;0.90;;;;;;;19.02;100.00;101236.16;5088437;28;20032;-72
2023/08/12 03:17:22;;;;;;;2.03;0.80;;;;;;;19.02;100.00;101230.88;5087878;28;20024;-71
2023/08/12 03:19:47;;;;;;;1.30;0.70;;;;;;;18.99;100.00;101234.69;5089215;28;20036;-72
2023/08/12 03:22:12;;;;;;;2.85;1.00;;;;;;;18.96;100.00;101227.13;5091348;28;20475;-72
2023/08/12 03:24:38;;;;;;;2.63;0.70;;;;;;;18.88;100.00;101241.25;5084010;28;20052;-72
2023/08/12 03:27:03;;;;;;;4.20;1.23;;;;;;;18.72;100.00;101233.47;5089908;28;20050;-72
2023/08/12 03:29:29;;;;;;;1.88;0.95;;;;;;;18.68;100.00;101232.19;5091786;28;20039;-72
2023/08/12 03:31:54;;;;;;;2.67;0.90;;;;;;;18.67;100.00;101230.53;5087662;28;20503;-72
2023/08/12 03:34:20;;;;;;;1.02;0.60;;;;;;;18.70;100.00;101230.19;5089993;28;20036;-72
2023/08/12 03:36:48;;;;;;;1.67;0.73;;;;;;;18.76;100.00;101233.94;5088861;28;20111;-72
2023/08/12 03:39:14;;;;;;;2.03;0.95;;;;;;;18.84;100.00;101231.22;5088380;28;20093;-72
2023/08/12 03:41:39;;;;;;;1.55;0.90;;;;;;;18.86;100.00;101231.88;5087133;28;20035;-72
2023/08/12 03:44:05;;;;;;;1.85;0.80;;;;;;;18.88;100.00;101230.69;5090018;28;20035;-72
2023/08/12 03:46:31;;;;;;;2.28;1.00;;;;;;;18.92;100.00;101233.75;5089673;28;20541;-72
2023/08/12 03:48:56;;;;;;;3.78;0.82;;;;;;;18.88;100.00;101233.34;5086645;28;20036;-72
2023/08/12 03:51:22;;;;;;;1.40;0.90;;;;;;;18.86;100.00;101240.59;5089467;28;20039;-72
2023/08/12 03:53:47;;;;;;;4.10;1.63;;;;;;;18.83;100.00;101238.31;5079207;28;20039;-72
2023/08/12 03:56:15;;;;;;;1.73;0.98;;;;;;;18.81;100.00;101235.03;5081590;28;20056;-72
2023/08/12 03:58:41;;;;;;;1.10;0.60;;;;;;;18.71;100.00;101245.03;5086011;28;20126;-72
2023/08/12 04:01:06;;;;;;;1.80;0.80;;;;;;;18.58;100.00;101242.97;5091793;28;20034;-72
2023/08/12 04:03:32;;;;;;;1.02;0.70;;;;;;;18.49;100.00;101245.84;5093707;28;20378;-72
2023/08/12 04:05:57;;;;;;;2.20;1.08;;;;;;;18.41;100.00;101245.94;5086406;28;20479;-72
2023/08/12 04:08:23;;;;;;;3.00;1.08;;;;;;;18.42;100.00;101240.47;5089002;28;20028;-72
2023/08/12 04:10:49;;;;;;;1.27;0.90;;;;;;;18.39;100.00;101237.38;5092828;28;20036;-72
2023/08/12 04:13:15;;;;;;;2.20;1.05;;;;;;;18.35;100.00;101247.44;5089878;28;20028;-72
2023/08/12 04:15:41;;;;;;;1.40;0.75;;;;;;;18.36;100.00;101246.44;5078204;28;20111;-72
2023/08/12 04:18:07;;;;;;;1.42;0.95;;;;;;;18.35;100.00;101244.00;5092031;28;20031;-72
2023/08/12 04:20:32;;;;;;;3.78;0.75;;;;;;;18.36;100.00;101241.19;5084156;28;20038;-72
2023/08/12 04:22:58;;;;;;;3.50;1.05;;;;;;;18.38;100.00;101243.63;5089197;28;20036;-72
2023/08/12 04:25:25;;;;;;;1.80;0.85;;;;;;;18.42;100.00;101244.94;5090792;28;20052;-72
2023/08/12 04:27:50;;;;;;;2.42;0.95;;;;;;;18.48;100.00;101247.66;5088615;28;20551;-72
2023/08/12 04:30:18;;;;;;;1.73;0.73;;;;;;;18.53;100.00;101241.84;5086528;28;20111;-72
2023/08/12 04:32:44;;;;;;;2.65;0.85;;;;;;;18.56;100.00;101237.03;5084301;28;20119;-72
2023/08/12 04:35:09;;;;;;;1.70;0.90;;;;;;;18.58;100.00;101240.31;5086176;28;20433;-70
2023/08/12 04:37:36;;;;;;;1.27;0.77;;;;;;;18.68;100.00;101240.09;5088380;28;20031;-69
2023/08/12 04:40:04;;;;;;;4.90;0.80;;;;;;;18.80;100.00;101238.69;5082528;28;20111;-71
2023/08/12 04:42:30;;;;;;;3.78;0.55;;;;;;;18.89;100.00;101234.97;5077911;28;20036;-71
2023/08/12 04:44:55;;;;;;;1.40;0.73;;;;;;;18.98;99.40;101240.97;5083586;28;20489;-71
2023/08/12 04:47:20;;;;;;;1.60;0.95;;;;;;;19.06;98.29;101237.44;5080983;28;20029;-73
2023/08/12 04:49:46;;;;;;;3.17;0.80;;;;;;;19.17;97.96;101239.63;5075710;28;20044;-75
2023/08/12 04:52:11;;;;;;;1.48;0.80;;;;;;;19.32;96.27;101237.81;5074077;28;20028;-73
2023/08/12 04:54:37;;;;;;;4.72;0.80;;;;;;;19.31;96.44;101241.44;5073992;28;20472;-71
2023/08/12 04:57:02;;;;;;;2.95;0.98;;;;;;;19.18;97.93;101235.97;5076861;28;20031;-71
2023/08/12 04:59:28;;;;;;;3.78;0.80;;;;;;;19.02;99.27;101236.97;5073398;28;20035;-72
2023/08/12 05:01:53;;;;;;;2.45;0.82;;;;;;;18.85;100.00;101241.59;5093801;28;20038;-72
2023/08/12 05:04:19;;;;;;;1.98;0.93;;;;;;;18.78;100.00;101240.69;5079239;28;20029;-72
2023/08/12 05:06:44;;;;;;;2.33;0.82;;;;;;;18.79;100.00;101246.78;5076481;28;20123;-72
2023/08/12 05:09:09;;;;;;;3.17;1.02;;;;;;;18.76;100.00;101247.97;5080688;28;20056;-73
2023/08/12 05:11:35;;;;;;;1.35;0.75;;;;;;;18.76;100.00;101247.13;5086881;28;20111;-72
2023/08/12 05:14:00;;;;;;;1.35;0.80;;;;;;;18.77;100.00;101249.59;5084275;28;20159;-72
2023/08/12 05:16:26;;;;;;;4.03;0.60;;;;;;;18.82;100.00;101241.16;5089983;28;20034;-73
2023/08/12 05:18:52;;;;;;;3.30;0.93;;;;;;;18.88;100.00;101240.44;5086428;28;20110;-72
2023/08/12 05:21:17;;;;;;;2.42;0.93;;;;;;;18.91;100.00;101232.13;5085518;28;20081;-72
2023/08/12 05:23:43;;;;;;;3.58;1.10;;;;;;;18.96;100.00;101236.88;5082542;28;20056;-72
2023/08/12 05:26:08;;;;;;;2.30;1.00;;;;;;;18.98;100.00;101240.16;5085657;28;20048;-72
2023/08/12 05:28:33;;;;;;;2.67;0.60;;;;;;;19.01;100.00;101240.59;5087310;28;20047;-72
2023/08/12 05:30:59;;;;;;;4.75;0.65;;;;;;;19.09;100.00;101234.41;5082775;28;20409;-72
2023/08/12 05:33:24;;;;;;;1.90;0.70;;;;;;;19.20;99.89;101242.72;5080117;28;20055;-72
2023/08/12 05:35:50;;;;;;;1.77;1.00;;;;;;;19.32;99.16;101243.09;5080450;28;20040;-72
2023/08/12 05:38:16;;;;;;;1.25;0.70;;;;;;;19.43;98.24;101242.59;5078489;28;20383;-71
2023/08/12 05:40:41;;;;;;;2.78;0.90;;;;;;;19.54;97.34;101236.88;5082363;28;20028;-72
2023/08/12 05:43:07;;;;;;;1.65;0.80;;;;;;;19.69;95.68;101236.06;5078036;28;20039;-71
2023/08/12 05:45:32;;;;;;;1.77;0.75;;;;;;;19.75;94.71;101240.59;5082251;28;20034;-70
2023/08/12 05:47:58;;;;;;;2.75;0.60;;;;;;;19.85;94.36;101228.69;5080567;28;20467;-70
2023/08/12 05:50:23;;;;;;;1.70;0.70;;;;;;;19.99;93.96;101239.44;5083598;28;20043;-70
2023/08/12 05:52:48;;;;;;;1.98;0.60;;;;;;;20.10;93.06;101237.13;5083905;28;20128;-69
2023/08/12 05:55:14;;;;;;;1.40;0.70;;;;;;;20.16;92.93;101231.06;5084589;28;20043;-70
2023/08/12 05:57:39;;;;;;;1.30;0.68;;;;;;;20.23;92.69;101240.91;5088818;28;20078;-70
2023/08/12 06:00:06;;;;;;;0.98;0.52;;;;;;;20.29;92.60;101237.50;5084304;28;20037;-70
2023/08/12 06:02:31;;;;;;;2.17;0.68;;;;;;;20.37;92.12;101232.88;5086638;28;20032;-70
2023/08/12 06:04:57;;;;;;;2.15;0.77;;;;;;;20.48;91.69;101236.88;5086075;28;20031;-70
2023/08/12 06:07:23;;;;;;;1.02;0.60;;;;;;;20.64;90.52;101236.63;5089368;28;20032;-69
2023/08/12 06:09:49;;;;;;;1.30;0.40;;;;;;;20.61;90.68;101239.66;5086133;28;20107;-69
2023/08/12 06:12:15;;;;;;;1.00;0.60;;;;;;;20.53;91.25;101224.72;5086500;28;20085;-70
2023/08/12 06:14:40;;;;;;;3.65;0.90;;;;;;;20.48;91.99;101231.59;5085451;28;20036;-69
2023/08/12 06:17:06;;;;;;;1.13;0.60;;;;;;;20.56;91.38;101231.47;5086920;28;20381;-69
2023/08/12 06:19:32;;;;;;;2.47;0.70;;;;;;;20.68;90.94;101235.22;5088884;28;20463;-69
2023/08/12 06:21:57;;;;;;;1.73;0.65;;;;;;;20.74;90.69;101239.75;5079289;28;20033;-69
2023/08/12 06:24:23;;;;;;;0.98;0.70;;;;;;;20.77;90.66;101236.72;5081156;28;20106;-69
2023/08/12 06:26:48;;;;;;;2.90;0.68;;;;;;;20.87;89.64;101233.72;5086896;28;20047;-68
2023/08/12 06:29:14;;;;;;;1.63;0.70;;;;;;;21.02;89.70;101230.97;5085234;28;20043;-69
2023/08/12 06:31:39;;;;;;;3.97;0.60;;;;;;;21.13;89.13;101230.44;5089623;28;20088;-69
2023/08/12 06:34:05;;;;;;;1.17;0.68;;;;;;;21.25;89.05;101234.19;5087849;28;20046;-69
2023/08/12 06:36:30;;;;;;;4.20;0.70;;;;;;;21.29;89.12;101224.81;5084408;28;20048;-69
2023/08/12 06:38:56;;;;;;;1.90;1.00;;;;;;;21.39;88.90;101235.88;5082014;28;20132;-69
2023/08/12 06:41:21;;;;;;;1.67;0.57;;;;;;;21.50;88.57;101224.72;5088986;28;20073;-69
2023/08/12 06:43:47;;;;;;;1.65;0.55;;;;;;;21.63;88.42;101231.09;5084945;28;20541;-69
2023/08/12 06:46:12;;;;;;;2.40;0.60;;;;;;;21.74;86.77;101230.53;5083207;28;20470;-69
2023/08/12 06:48:38;;;;;;;1.27;0.70;;;;;;;21.67;87.13;101229.69;5093640;28;20082;-69
2023/08/12 06:51:10;;;;;;;0.90;0.60;;;;;;;21.66;87.64;101220.91;5089359;28;20055;-69
2023/08/12 06:53:36;;;;;;;1.80;0.60;;;;;;;21.79;86.84;101222.78;5082739;28;20036;-69
2023/08/12 06:56:01;;;;;;;1.55;0.85;;;;;;;21.86;86.24;101219.13;5090947;28;20577;-69
2023/08/12 06:58:27;;;;;;;1.05;0.55;;;;;;;21.98;85.95;101222.00;5093512;28;20123;-69
2023/08/12 07:00:53;;;;;;;4.05;0.60;;;;;;;22.03;85.41;101219.59;5090876;28;20044;-68
2023/08/12 07:03:18;;;;;;;2.78;0.80;;;;;;;22.02;85.79;101222.47;5092660;28;20031;-69
2023/08/12 07:05:44;;;;;;;1.77;0.75;;;;;;;22.06;85.51;101226.34;5093639;28;20028;-69
2023/08/12 07:08:10;;;;;;;2.40;0.57;;;;;;;22.10;85.71;101219.63;5091900;28;20052;-69
2023/08/12 07:10:39;;;;;;;1.85;0.50;;;;;;;22.11;84.97;101224.72;5093621;28;20047;-69
2023/08/12 07:13:05;;;;;;;2.10;0.63;;;;;;;22.15;85.50;101219.84;5092849;28;20032;-69
2023/08/12 07:15:30;;;;;;;1.02;0.45;;;;;;;22.26;85.06;101226.34;5093451;28;20024;-69
2023/08/12 07:17:57;;;;;;;2.08;0.40;;;;;;;22.35;84.54;101217.19;5091688;28;20155;-69
2023/08/12 07:20:24;;;;;;;4.20;1.30;;;;;;;22.46;84.57;101225.38;5094816;28;20024;-68
2023/08/12 07:22:49;;;;;;;0.90;0.50;;;;;;;22.61;83.35;101222.50;5076937;28;20032;-68
2023/08/12 07:25:14;;;;;;;1.30;0.70;;;;;;;22.69;83.25;101219.63;5089706;28;20035;-68
2023/08/12 07:27:40;;;;;;;3.13;0.63;;;;;;;22.75;82.39;101220.63;5094172;28;20024;-69
2023/08/12 07:30:07;;;;;;;4.97;0.50;;;;;;;22.77;81.38;101223.91;5089944;28;20032;-69
2023/08/12 07:32:33;;;;;;;1.67;0.55;;;;;;;22.75;81.67;101224.09;5092579;28;20027;-70
2023/08/12 07:34:58;;;;;;;2.28;0.60;;;;;;;22.82;82.29;101218.81;5088971;28;20038;-71
2023/08/12 07:37:24;;;;;;;2.22;0.73;;;;;;;22.96;82.43;101209.00;5091662;28;20081;-71
2023/08/12 07:39:49;;;;;;;1.65;0.80;;;;;;;23.02;82.32;101214.28;5086352;28;20114;-71
2023/08/12 07:42:15;;;;;;;2.20;0.60;;;;;;;23.05;81.53;101216.53;5085353;28;20085;-71
2023/08/12 07:44:40;;;;;;;2.65;0.50;;;;;;;23.21;81.25;101206.47;5085118;28;20036;-71
2023/08/12 07:47:05;;;;;;;3.65;1.00;;;;;;;23.24;82.00;101209.50;5097817;28;20032;-71
2023/08/12 07:49:31;;;;;;;2.72;0.75;;;;;;;23.37;82.12;101212.13;5087914;28;20076;-71
2023/08/12 07:51:56;;;;;;;1.23;0.50;;;;;;;23.45;81.61;101214.56;5085764;28;20491;-70
2023/08/12 07:54:22;;;;;;;2.00;0.73;;;;;;;23.55;82.52;101208.00;5089793;28;20054;-70
2023/08/12 07:56:47;;;;;;;1.40;0.82;;;;;;;23.67;82.55;101211.59;5084516;28;21140;-70
2023/08/12 07:59:12;;;;;;;1.00;0.52;;;;;;;23.88;82.07;101213.97;5091008;28;20383;-70
2023/08/12 08:01:38;;;;;;;0.90;0.60;;;;;;;24.00;81.45;101212.25;5086667;28;20047;-70
2023/08/12 08:04:04;;;;;;;1.30;0.60;;;;;;;24.16;81.11;101210.88;5088329;28;20128;-71
2023/08/12 08:06:29;;;;;;;4.32;0.80;;;;;;;24.26;79.22;101205.94;5087114;28;20505;-70
2023/08/12 08:08:55;;;;;;;1.50;0.50;;;;;;;24.38;79.11;101208.72;5090315;28;20035;-71
2023/08/12 08:11:21;;;;;;;0.90;0.45;;;;;;;24.47;77.82;101210.09;5087779;28;20028;-71
2023/08/12 08:13:46;;;;;;;0.90;0.50;;;;;;;24.61;77.71;101197.44;5088078;28;20479;-71
2023/08/12 08:16:12;;;;;;;1.83;0.88;;;;;;;24.71;76.88;101197.75;5087316;28;20039;-73
2023/08/12 08:18:37;;;;;;;9.30;2.15;;;;;;;24.83;76.28;101198.66;5087689;28;20043;-70
2023/08/12 08:21:03;;;;;;;0.80;0.57;;;;;;;24.80;76.08;101196.44;5088457;28;20036;-71
2023/08/12 08:23:29;;;;;;;0.95;0.45;;;;;;;24.85;75.95;101198.44;5085870;28;20028;-70
2023/08/12 08:25:54;;;;;;;2.08;1.23;;;;;;;24.97;75.71;101199.38;5088941;28;20066;-70
2023/08/12 08:28:19;;;;;;;1.08;0.50;;;;;;;25.09;74.07;101194.91;5088585;28;20055;-71
2023/08/12 08:30:45;;;;;;;2.00;0.70;;;;;;;25.24;73.09;101198.03;5088844;28;20526;-70
2023/08/12 08:33:10;;;;;;;1.20;0.77;;;;;;;25.41;73.47;101198.25;5090227;28;20387;-70
2023/08/12 08:35:36;;;;;;;0.85;0.30;;;;;;;25.44;73.82;101197.81;5085830;28;20040;-70
2023/08/12 08:38:01;;;;;;;2.53;1.10;;;;;;;25.56;72.90;101190.63;5092778;28;20115;-71
2023/08/12 08:40:27;;;;;;;1.55;0.55;;;;;;;25.59;72.92;101192.03;5077373;28;20455;-70
2023/08/12 08:42:53;;;;;;;1.63;0.70;;;;;;;25.53;72.08;101195.59;5088615;28;20097;-70
2023/08/12 08:45:21;;;;;;;1.92;0.50;;;;;;;25.33;72.21;101193.22;5091628;28;20092;-71
2023/08/12 08:47:48;;;;;;;1.40;0.63;;;;;;;25.30;72.91;101199.00;5091789;28;20023;-71
2023/08/12 08:50:14;;;;;;;0.98;0.57;;;;;;;25.44;72.67;101197.81;5092109;28;20400;-71
2023/08/12 08:52:41;;;;;;;1.20;0.50;;;;;;;25.48;72.86;101198.16;5082393;28;20029;-70
2023/08/12 08:55:07;;;;;;;1.33;0.50;;;;;;;25.63;72.46;101195.88;5086942;28;20082;-70
2023/08/12 08:57:33;;;;;;;1.67;0.65;;;;;;;25.78;72.37;101189.13;5085819;28;20040;-70
2023/08/12 08:59:59;;;;;;;0.80;0.43;;;;;;;25.83;72.30;101190.31;5087993;28;20495;-71
2023/08/12 09:02:25;;;;;;;1.10;0.70;;;;;;;25.93;71.59;101190.59;5088391;28;20123;-70
2023/08/12 09:04:50;;;;;;;4.10;0.60;;;;;;;25.93;72.07;101191.41;5089361;28;20495;-70
2023/08/12 09:07:16;;;;;;;1.27;0.40;;;;;;;25.63;71.53;101191.38;5094070;28;20047;-70
2023/08/12 09:09:45;;;;;;;1.80;0.82;;;;;;;25.63;71.99;101187.88;5088096;28;20476;-71
2023/08/12 09:12:14;;;;;;;3.00;0.70;;;;;;;25.73;72.04;101196.19;5088047;28;20038;-70
2023/08/12 09:14:39;;;;;;;0.77;0.40;;;;;;;25.61;71.39;101192.63;5083309;28;20028;-70
2023/08/12 09:17:05;;;;;;;0.90;0.52;;;;;;;25.73;71.73;101190.84;5089771;28;20036;-70
2023/08/12 09:19:31;;;;;;;1.33;0.60;;;;;;;25.85;71.84;101183.72;5091100;28;20028;-70
2023/08/12 09:21:56;;;;;;;1.00;0.50;;;;;;;25.87;71.17;101186.16;5089906;28;20032;-70
2023/08/12 09:24:26;;;;;;;2.65;0.50;;;;;;;25.67;70.81;101175.75;5091169;28;20028;-70
2023/08/12 09:26:55;;;;;;;2.75;0.70;;;;;;;25.68;70.53;101178.19;5086338;28;20040;-70
2023/08/12 09:29:31;;;;;;;1.92;0.40;;;;;;;25.67;70.00;101181.09;5089890;28;20031;-71
2023/08/12 09:32:06;;;;;;;1.20;0.57;;;;;;;25.66;70.34;101182.13;5096951;28;20023;-70
2023/08/12 09:34:31;;;;;;;;;;;;;;;25.50;69.22;101172.91;5090954;28;20047;-70
2023/08/12 09:36:57;;;;;;;1.10;0.50;;;;;;;25.65;69.47;101167.97;5078647;28;19932;-70
2023/08/12 09:39:22;;;;;;;0.90;0.60;;;;;;;25.74;68.42;101171.13;5079640;28;20036;-70
2023/08/12 09:41:49;;;;;;;1.83;0.55;;;;;;;25.83;68.85;101164.44;5078232;28;20078;-70
2023/08/12 09:44:15;;;;;;;1.63;0.50;;;;;;;25.78;69.35;101167.78;5094866;28;20392;-71
2023/08/12 09:46:40;;;;;;;1.20;0.60;;;;;;;25.69;68.97;101157.66;5075874;28;20029;-70
2023/08/12 09:49:06;;;;;;;0.88;0.63;;;;;;;25.85;69.25;101156.19;5069402;28;20086;-70
2023/08/12 09:51:40;;;;;;;1.05;0.40;;;;;;;25.85;69.05;101151.69;5076384;28;20063;-70
2023/08/12 09:54:06;;;;;;;2.30;0.40;;;;;;;25.70;69.28;101149.44;5080378;28;20038;-69
2023/08/12 09:56:35;;;;;;;2.00;0.63;;;;;;;25.64;69.24;101152.19;5071169;28;20111;-69
2023/08/12 09:59:03;;;;;;;1.08;0.60;;;;;;;25.56;69.44;101152.47;5070860;28;20384;-70
2023/08/12 10:01:28;;;;;;;1.33;0.60;;;;;;;25.61;68.72;101149.94;5078636;28;20503;-70
2023/08/12 10:03:54;;;;;;;2.08;0.50;;;;;;;25.68;68.78;101148.84;5075907;28;20039;-70
2023/08/12 10:06:20;;;;;;;2.13;0.40;;;;;;;25.69;69.67;101152.31;5086455;28;20032;-70
2023/08/12 10:08:46;;;;;;;0.88;0.60;;;;;;;25.60;70.20;101149.13;5088691;28;20391;-70
2023/08/12 10:11:13;;;;;;;1.73;0.60;;;;;;;25.61;70.12;101133.94;5083592;28;20040;-70
2023/08/12 10:13:40;;;;;;;2.55;0.40;;;;;;;25.72;69.42;101141.19;5085413;28;20476;-69
2023/08/12 10:16:06;;;;;;;2.58;0.60;;;;;;;25.88;69.50;101140.53;5089420;28;20036;-70
2023/08/12 10:18:33;;;;;;;1.88;0.50;;;;;;;25.68;68.82;101134.69;5090413;28;20089;-69
2023/08/12 10:21:00;;;;;;;2.00;0.80;;;;;;;25.65;69.71;101135.94;5081119;28;20032;-70
2023/08/12 10:23:25;;;;;;;1.15;0.55;;;;;;;25.66;69.51;101136.75;5083493;28;20041;-70
2023/08/12 10:25:54;;;;;;;3.13;0.80;;;;;;;25.69;69.18;101133.66;5093194;28;20248;-70
2023/08/12 10:28:20;;;;;;;1.13;0.63;;;;;;;25.84;69.17;101130.56;5090516;28;20028;-70
2023/08/12 10:30:45;;;;;;;1.05;0.57;;;;;;;25.93;68.67;101130.00;5089937;28;20400;-69
2023/08/12 10:33:14;;;;;;;2.28;0.75;;;;;;;25.86;68.98;101128.47;5094374;28;20043;-69
2023/08/12 10:35:42;;;;;;;1.00;0.65;;;;;;;26.00;69.15;101124.53;5094257;28;20167;-70
2023/08/12 10:38:07;;;;;;;2.97;0.68;;;;;;;25.89;68.88;101125.34;5092590;28;20032;-70
2023/08/12 10:40:33;;;;;;;1.67;0.50;;;;;;;26.02;67.41;101120.59;5094115;28;20038;-69
2023/08/12 10:42:59;;;;;;;1.38;0.60;;;;;;;26.06;66.94;101121.75;5093493;28;20032;-70
2023/08/12 10:45:52;;;;;;;2.65;0.70;;;;;;;25.95;67.11;101119.91;5094187;28;20428;-70
2023/08/12 10:48:24;;;;;;;1.17;0.50;;;;;;;26.08;66.82;101119.66;5089342;28;20035;-69
2023/08/12 10:50:55;;;;;;;1.27;0.40;;;;;;;26.08;67.08;101106.31;5093276;28;20032;-70
2023/08/12 10:53:29;;;;;;;0.82;0.35;;;;;;;25.98;68.08;101103.44;5088079;28;20035;-69
2023/08/12 10:55:59;;;;;;;0.90;0.40;;;;;;;26.00;68.81;101108.50;5091654;28;20077;-69
2023/08/12 10:58:34;;;;;;;3.10;0.57;;;;;;;26.07;69.30;101098.53;5093661;28;20040;-69
2023/08/12 11:01:00;;;;;;;2.13;0.40;;;;;;;26.15;69.98;101100.03;5087600;28;20538;-70
2023/08/12 11:03:26;;;;;;;0.90;0.40;;;;;;;26.24;69.83;101096.81;5085463;28;20035;-70
2023/08/12 11:05:55;;;;;;;1.02;0.50;;;;;;;26.29;69.87;101096.91;5083421;28;20032;-71
2023/08/12 11:08:24;;;;;;;2.10;0.50;;;;;;;26.30;69.89;101095.88;5088222;28;20115;-70
2023/08/12 11:10:50;;;;;;;0.85;0.50;;;;;;;26.23;69.54;101094.38;5087994;28;20024;-71
2023/08/12 11:13:15;;;;;;;1.00;0.50;;;;;;;26.24;69.43;101091.47;5083377;28;20391;-70
2023/08/12 11:15:46;;;;;;;4.25;0.50;;;;;;;26.31;69.86;101091.38;5088927;28;20032;-70
2023/08/12 11:18:17;;;;;;;1.48;0.60;;;;;;;26.24;70.47;101094.13;5097207;28;20067;-70